Time;durP1;ratioP1;P1;durP2;ratioP2;P2;SDS_P1;SDS_P2;PMS_P1;PMS_P2;Temp;Humidity;BMP_temperature;BMP_pressure;BME280_temperature;BME280_humidity;BME280_pressure;Samples;Min_cycle;Max_cycle;Signal;HPM_P1;HPM_P2
2023/10/22 00:00:01;;;;;;;17.85;11.15;;;9.50;77.20;;;;;;5003573;28;20030;-94
2023/10/22 00:02:38;;;;;;;14.63;10.40;;;9.50;77.20;;;;;;4990782;28;20513;-93
2023/10/22 00:05:05;;;;;;;14.45;10.35;;;9.50;77.30;;;;;;4997548;28;20049;-93
2023/10/22 00:07:31;;;;;;;17.40;10.93;;;9.50;77.20;;;;;;4981678;28;20584;-88
2023/10/22 00:09:58;;;;;;;18.73;11.48;;;9.50;77.30;;;;;;5005034;28;20038;-94
2023/10/22 00:12:24;;;;;;;14.82;10.80;;;9.50;77.30;;;;;;5000752;28;20075;-93
2023/10/22 00:14:50;;;;;;;17.27;10.85;;;9.50;77.20;;;;;;4974683;28;20026;-88
2023/10/22 00:17:16;;;;;;;18.90;11.43;;;9.50;77.20;;;;;;4998566;28;20125;-91
2023/10/22 00:19:46;;;;;;;16.80;11.05;;;9.50;77.40;;;;;;4992404;28;20252;-92
2023/10/22 00:22:14;;;;;;;16.90;10.95;;;9.50;77.30;;;;;;5009131;28;20677;-91
2023/10/22 00:24:41;;;;;;;16.25;12.05;;;9.50;77.30;;;;;;5006695;28;20578;-91
2023/10/22 00:27:07;;;;;;;17.05;12.40;;;9.50;77.40;;;;;;4993545;28;20032;-90
2023/10/22 00:29:33;;;;;;;17.70;12.35;;;9.50;77.40;;;;;;5009817;28;20408;-92
2023/10/22 00:31:59;;;;;;;18.15;12.27;;;9.50;77.30;;;;;;4978543;28;20631;-95
2023/10/22 00:34:25;;;;;;;19.52;13.07;;;9.50;77.30;;;;;;5030941;28;20037;-93
2023/10/22 00:36:51;;;;;;;22.15;13.02;;;9.50;77.40;;;;;;4993039;28;20137;-91
2023/10/22 00:39:17;;;;;;;19.00;11.75;;;9.60;77.40;;;;;;4975871;28;20026;-94
2023/10/22 00:41:43;;;;;;;22.15;12.30;;;9.50;77.20;;;;;;4980762;28;20045;-94
2023/10/22 00:44:09;;;;;;;18.10;12.82;;;9.60;77.20;;;;;;4980508;28;20038;-92
2023/10/22 00:46:36;;;;;;;20.80;13.95;;;9.50;77.10;;;;;;4974826;28;20045;-90
2023/10/22 00:49:02;;;;;;;18.98;13.00;;;9.50;77.20;;;;;;5000672;28;20035;-90
2023/10/22 00:51:28;;;;;;;18.33;12.82;;;9.50;77.30;;;;;;4987984;28;20030;-86
2023/10/22 00:53:55;;;;;;;18.58;12.88;;;9.60;77.40;;;;;;4990842;28;20044;-94
2023/10/22 00:56:22;;;;;;;18.92;12.88;;;9.60;77.40;;;;;;4983885;28;20081;-94
2023/10/22 00:58:49;;;;;;;21.85;13.73;;;9.60;77.50;;;;;;4983102;28;20346;-92
2023/10/22 01:01:16;;;;;;;22.02;13.07;;;9.60;77.50;;;;;;4966854;28;20038;-92
2023/10/22 01:03:45;;;;;;;19.15;13.10;;;9.60;77.50;;;;;;4985726;28;20123;-93
2023/10/22 01:06:11;;;;;;;25.15;14.13;;;9.60;77.50;;;;;;4974938;28;20030;-94
2023/10/22 01:08:38;;;;;;;20.35;13.98;;;9.60;77.40;;;;;;4983095;28;20523;-92
2023/10/22 01:11:11;;;;;;;21.25;13.95;;;9.60;77.50;;;;;;4987963;28;20031;-89
2023/10/22 01:13:42;;;;;;;23.60;14.18;;;9.60;77.50;;;;;;4982245;28;20052;-93
2023/10/22 01:16:08;;;;;;;18.70;13.82;;;9.60;77.30;;;;;;5014937;28;21560;-89
2023/10/22 01:18:34;;;;;;;24.40;15.18;;;9.60;77.40;;;;;;4979213;28;20117;-94
2023/10/22 01:21:01;;;;;;;23.88;14.73;;;9.60;77.30;;;;;;4978764;28;20362;-94
2023/10/22 01:23:27;;;;;;;23.90;14.05;;;9.60;77.40;;;;;;5001820;28;20038;-92
2023/10/22 01:25:53;;;;;;;22.80;14.48;;;9.60;77.20;;;;;;5023672;28;20034;-93
2023/10/22 01:28:19;;;;;;;20.85;13.52;;;9.60;77.30;;;;;;4994420;28;20033;-92
2023/10/22 01:30:45;;;;;;;18.65;13.65;;;9.60;77.20;;;;;;5002547;28;20642;-90
2023/10/22 01:33:11;;;;;;;25.42;14.65;;;9.60;77.20;;;;;;4994533;28;20042;-93
2023/10/22 01:35:37;;;;;;;24.85;14.38;;;9.60;77.20;;;;;;5003085;28;20083;-95
2023/10/22 01:38:03;;;;;;;22.70;14.45;;;9.60;77.20;;;;;;5020225;28;20120;-93
2023/10/22 01:40:29;;;;;;;22.35;14.70;;;9.60;77.30;;;;;;5010051;28;20034;-92
2023/10/22 01:42:56;;;;;;;21.15;14.65;;;9.60;77.20;;;;;;4990446;28;20065;-86
2023/10/22 01:45:23;;;;;;;21.92;13.95;;;9.70;77.30;;;;;;4991250;28;20030;-95
2023/10/22 01:47:49;;;;;;;23.05;15.07;;;9.70;77.30;;;;;;4975206;28;20088;-95
2023/10/22 01:50:15;;;;;;;23.02;14.60;;;9.70;77.40;;;;;;4968964;28;20034;-95
2023/10/22 01:52:41;;;;;;;22.60;14.88;;;9.70;77.30;;;;;;4981343;28;20030;-94
2023/10/22 01:55:07;;;;;;;21.90;14.15;;;9.60;77.30;;;;;;4964344;28;20045;-90
2023/10/22 01:57:33;;;;;;;18.23;13.38;;;9.70;77.30;;;;;;4983072;28;20026;-93
2023/10/22 01:59:59;;;;;;;21.50;13.95;;;9.70;77.30;;;;;;4985705;28;20117;-91
2023/10/22 02:02:26;;;;;;;18.02;13.38;;;9.70;77.30;;;;;;4989403;28;20127;-92
2023/10/22 02:04:52;;;;;;;21.00;13.13;;;9.70;77.40;;;;;;4965449;28;20038;-91
2023/10/22 02:07:20;;;;;;;19.38;13.48;;;9.70;77.30;;;;;;4980371;28;20039;-92
2023/10/22 02:09:46;;;;;;;19.25;12.60;;;9.70;77.30;;;;;;4963941;28;20038;-91
2023/10/22 02:12:14;;;;;;;19.23;12.95;;;9.70;77.10;;;;;;4996067;28;20544;-92
2023/10/22 02:14:40;;;;;;;18.55;12.57;;;9.70;77.10;;;;;;4999472;28;20126;-93
2023/10/22 02:17:06;;;;;;;19.10;12.93;;;9.70;77.10;;;;;;5011793;28;20075;-93
2023/10/22 02:19:32;;;;;;;17.48;12.80;;;9.70;77.10;;;;;;4984771;28;20686;-92
2023/10/22 02:21:58;;;;;;;19.92;12.85;;;9.70;77.00;;;;;;4999369;28;20038;-93
2023/10/22 02:24:24;;;;;;;18.17;11.63;;;9.70;77.00;;;;;;4973934;28;20063;-87
2023/10/22 02:26:49;;;;;;;18.85;12.88;;;9.70;76.90;;;;;;4991649;28;20030;-92
2023/10/22 02:29:16;;;;;;;18.08;12.50;;;9.70;76.80;;;;;;5010188;28;20712;-93
2023/10/22 02:31:44;;;;;;;19.65;12.45;;;9.70;76.90;;;;;;4986605;28;20113;-92
2023/10/22 02:34:12;;;;;;;18.23;12.45;;;9.70;77.00;;;;;;4968690;28;20038;-91
2023/10/22 02:36:38;;;;;;;17.67;11.60;;;9.80;76.90;;;;;;4975565;28;20041;-93
2023/10/22 02:39:04;;;;;;;21.70;12.45;;;9.70;76.80;;;;;;5010219;28;20044;-85
2023/10/22 02:41:30;;;;;;;17.77;11.88;;;9.80;76.90;;;;;;4974237;28;20034;-93
2023/10/22 02:43:57;;;;;;;18.83;11.88;;;9.80;76.80;;;;;;5001953;28;20041;-92
2023/10/22 02:46:24;;;;;;;18.95;11.85;;;9.80;76.80;;;;;;5001123;28;20042;-88
2023/10/22 02:48:50;;;;;;;20.30;12.00;;;9.80;76.80;;;;;;4995169;28;20041;-91
2023/10/22 02:51:16;;;;;;;17.83;12.00;;;9.80;76.80;;;;;;4996481;28;20629;-92
2023/10/22 02:53:43;;;;;;;19.60;11.02;;;9.80;76.80;;;;;;4997123;28;20690;-91
2023/10/22 02:56:09;;;;;;;21.38;11.68;;;9.80;76.90;;;;;;4990348;28;20173;-92
2023/10/22 02:58:38;;;;;;;16.98;10.98;;;9.80;76.70;;;;;;4993373;28;20030;-90
2023/10/22 03:01:08;;;;;;;19.05;11.02;;;9.80;76.80;;;;;;4990344;28;20039;-87
2023/10/22 03:03:41;;;;;;;17.33;11.50;;;9.80;76.80;;;;;;4992223;28;20061;-94
2023/10/22 03:06:09;;;;;;;18.00;11.15;;;9.80;76.80;;;;;;4999526;28;20029;-86
2023/10/22 03:08:37;;;;;;;15.02;10.25;;;9.80;76.60;;;;;;4994958;28;20033;-93
2023/10/22 03:11:04;;;;;;;14.85;10.70;;;9.80;76.70;;;;;;4996254;28;20030;-91
2023/10/22 03:13:31;;;;;;;16.83;10.23;;;9.80;76.60;;;;;;4967206;28;20018;-96
2023/10/22 03:16:05;;;;;;;13.88;9.70;;;9.80;76.50;;;;;;4977327;28;20045;-94
2023/10/22 03:18:31;;;;;;;16.73;10.45;;;9.80;76.40;;;;;;4958991;28;20485;-93
2023/10/22 03:20:57;;;;;;;16.05;10.57;;;9.80;76.30;;;;;;4986721;28;20114;-94
2023/10/22 03:23:23;;;;;;;15.63;9.98;;;9.80;76.30;;;;;;4990679;28;20046;-90
2023/10/22 03:25:50;;;;;;;17.35;9.57;;;9.80;76.30;;;;;;4972068;28;20053;-88
2023/10/22 03:28:16;;;;;;;14.95;9.50;;;9.90;76.30;;;;;;4973134;28;20054;-90
2023/10/22 03:30:42;;;;;;;15.23;10.15;;;9.90;76.20;;;;;;4973706;28;20165;-87
2023/10/22 03:33:08;;;;;;;12.07;8.60;;;9.80;76.10;;;;;;4994411;28;20061;-86
2023/10/22 03:35:36;;;;;;;14.18;9.15;;;9.90;76.80;;;;;;4991441;28;20060;-86
2023/10/22 03:38:03;;;;;;;12.77;8.45;;;9.90;76.20;;;;;;5002725;28;20034;-85
2023/10/22 03:40:31;;;;;;;12.70;8.70;;;9.90;76.20;;;;;;4956832;28;20031;-85
2023/10/22 03:42:57;;;;;;;13.00;8.75;;;9.90;76.20;;;;;;4985722;28;20500;-82
2023/10/22 03:45:23;;;;;;;11.93;7.85;;;9.90;76.10;;;;;;4989803;28;20034;-84
2023/10/22 03:47:53;;;;;;;12.68;7.93;;;9.90;76.00;;;;;;5005914;28;20036;-83
2023/10/22 03:50:19;;;;;;;11.55;7.65;;;9.90;76.10;;;;;;4977323;28;20137;-83
2023/10/22 03:52:47;;;;;;;10.52;7.22;;;9.90;76.10;;;;;;4993948;28;20133;-83
2023/10/22 03:55:13;;;;;;;10.43;6.85;;;9.90;76.10;;;;;;4987246;28;20042;-84
2023/10/22 03:57:39;;;;;;;9.73;7.70;;;9.90;76.20;;;;;;4983572;28;20034;-84
2023/10/22 04:00:07;;;;;;;9.93;7.05;;;9.90;76.10;;;;;;5009584;28;20837;-83
2023/10/22 04:02:37;;;;;;;11.02;7.28;;;9.90;75.90;;;;;;5005900;28;20030;-84
2023/10/22 04:05:03;;;;;;;10.40;6.60;;;9.90;76.00;;;;;;4989757;28;20136;-85
2023/10/22 04:07:32;;;;;;;10.32;6.63;;;9.90;76.50;;;;;;5001819;28;20030;-85
2023/10/22 04:09:58;;;;;;;10.57;7.78;;;9.90;75.90;;;;;;5005659;28;20080;-85
2023/10/22 04:12:24;;;;;;;9.35;6.63;;;9.90;75.90;;;;;;5005996;28;21381;-84
2023/10/22 04:14:50;;;;;;;10.00;6.20;;;9.90;75.90;;;;;;5005565;28;20034;-85
2023/10/22 04:17:16;;;;;;;8.45;5.97;;;9.90;75.90;;;;;;4972536;28;20520;-85
2023/10/22 04:19:42;;;;;;;8.13;6.00;;;9.90;75.90;;;;;;4988720;28;20040;-83
2023/10/22 04:22:08;;;;;;;7.72;5.80;;;9.90;75.50;;;;;;5005085;28;20068;-86
2023/10/22 04:24:34;;;;;;;9.73;5.80;;;9.90;75.30;;;;;;5005292;28;20050;-85
2023/10/22 04:27:00;;;;;;;10.52;5.38;;;9.90;75.20;;;;;;4977287;28;20547;-82
2023/10/22 04:29:26;;;;;;;9.65;5.93;;;9.90;75.40;;;;;;5001995;28;20116;-83
2023/10/22 04:31:52;;;;;;;7.18;5.55;;;9.90;75.40;;;;;;4988992;28;20092;-83
2023/10/22 04:34:18;;;;;;;7.30;5.28;;;9.90;75.30;;;;;;5005995;28;20041;-84
2023/10/22 04:36:44;;;;;;;7.82;5.13;;;9.90;75.30;;;;;;5015709;28;21333;-82
2023/10/22 04:39:10;;;;;;;8.27;5.22;;;9.90;75.30;;;;;;5006729;28;20080;-83
2023/10/22 04:41:36;;;;;;;7.28;5.38;;;9.90;75.20;;;;;;4989089;28;20037;-85
2023/10/22 04:44:03;;;;;;;8.18;5.35;;;9.90;75.20;;;;;;4972862;28;20038;-84
2023/10/22 04:46:29;;;;;;;7.18;5.35;;;9.90;75.10;;;;;;5006937;28;20029;-84
2023/10/22 04:48:55;;;;;;;7.53;5.60;;;9.90;75.10;;;;;;4992968;28;20519;-86
2023/10/22 04:51:21;;;;;;;7.97;5.18;;;9.90;75.00;;;;;;4994286;28;20365;-88
2023/10/22 04:53:47;;;;;;;6.10;5.07;;;9.90;75.10;;;;;;5010090;28;20030;-88
2023/10/22 04:56:13;;;;;;;12.95;5.75;;;9.90;75.10;;;;;;5009341;28;20041;-81
2023/10/22 04:58:39;;;;;;;8.23;5.57;;;10.00;75.10;;;;;;5008125;28;20467;-83
2023/10/22 05:01:05;;;;;;;9.85;5.57;;;9.90;74.90;;;;;;5009560;28;20034;-83
2023/10/22 05:03:31;;;;;;;7.50;4.95;;;10.00;75.00;;;;;;5009368;28;20447;-80
2023/10/22 05:06:02;;;;;;;6.68;5.35;;;9.90;75.00;;;;;;5009415;28;20132;-82
2023/10/22 05:08:28;;;;;;;6.82;5.20;;;9.90;74.80;;;;;;4987369;28;20073;-81
2023/10/22 05:10:54;;;;;;;7.15;5.18;;;9.90;74.80;;;;;;4999789;28;20512;-83
2023/10/22 05:13:22;;;;;;;8.43;5.60;;;9.90;74.80;;;;;;4975857;28;20071;-85
2023/10/22 05:15:53;;;;;;;5.95;5.10;;;10.00;74.80;;;;;;4992222;28;20099;-85
2023/10/22 05:18:19;;;;;;;5.70;5.10;;;9.90;74.70;;;;;;4994056;28;20029;-87
2023/10/22 05:20:44;;;;;;;9.07;5.47;;;9.90;74.70;;;;;;5008687;28;21151;-84
2023/10/22 05:23:10;;;;;;;7.57;5.03;;;10.00;74.80;;;;;;5009089;28;20149;-84
2023/10/22 05:25:37;;;;;;;6.55;4.60;;;10.00;74.70;;;;;;5012295;28;20405;-89
2023/10/22 05:28:03;;;;;;;6.80;5.00;;;10.00;74.60;;;;;;5012390;28;20037;-87
2023/10/22 05:30:31;;;;;;;6.25;4.40;;;9.90;74.60;;;;;;5012827;28;20488;-85
2023/10/22 05:32:57;;;;;;;7.05;4.70;;;10.00;74.80;;;;;;5009724;28;20076;-86
2023/10/22 05:35:24;;;;;;;5.45;4.50;;;10.00;75.40;;;;;;5008943;28;20066;-89
2023/10/22 05:37:51;;;;;;;6.40;4.63;;;10.00;74.90;;;;;;5007760;28;20038;-83
2023/10/22 05:40:18;;;;;;;7.18;5.22;;;10.00;75.00;;;;;;4988934;28;20538;-82
2023/10/22 05:42:44;;;;;;;9.38;5.35;;;10.00;74.90;;;;;;4976142;28;20048;-83
2023/10/22 05:45:10;;;;;;;5.43;4.13;;;10.00;74.90;;;;;;4987305;28;20488;-83
2023/10/22 05:47:37;;;;;;;6.32;4.18;;;10.00;75.00;;;;;;4991919;28;20034;-88
2023/10/22 05:50:04;;;;;;;7.45;5.05;;;10.00;75.00;;;;;;4989344;28;20077;-90
2023/10/22 05:52:30;;;;;;;6.30;4.75;;;10.00;75.00;;;;;;4993251;28;20065;-89
2023/10/22 05:54:56;;;;;;;5.70;4.30;;;10.00;75.00;;;;;;4969409;28;20122;-87
2023/10/22 05:57:23;;;;;;;6.80;4.28;;;10.00;75.20;;;;;;4984710;28;20030;-87
2023/10/22 05:59:49;;;;;;;6.25;4.55;;;10.00;75.30;;;;;;5002554;28;20042;-85
2023/10/22 06:02:15;;;;;;;6.68;4.78;;;10.00;75.20;;;;;;5011246;28;20069;-86
2023/10/22 06:04:41;;;;;;;5.28;4.00;;;10.00;75.10;;;;;;4991906;28;20030;-85
2023/10/22 06:07:07;;;;;;;7.60;4.53;;;10.00;75.20;;;;;;5011951;28;20136;-89
2023/10/22 06:09:36;;;;;;;6.60;4.53;;;10.00;75.10;;;;;;4983190;28;20053;-88
2023/10/22 06:12:03;;;;;;;5.35;4.07;;;10.00;75.10;;;;;;5002603;28;20030;-89
2023/10/22 06:14:29;;;;;;;6.80;4.32;;;10.00;75.10;;;;;;4978418;28;20064;-90
2023/10/22 06:16:55;;;;;;;7.63;3.92;;;10.00;75.00;;;;;;5010683;28;20033;-91
2023/10/22 06:19:21;;;;;;;7.63;3.90;;;10.00;75.10;;;;;;4994640;28;20040;-89
2023/10/22 06:21:47;;;;;;;4.80;3.95;;;10.00;75.00;;;;;;4993349;28;20034;-88
2023/10/22 06:24:13;;;;;;;7.00;4.20;;;10.00;75.00;;;;;;4994701;28;20081;-88
2023/10/22 06:26:40;;;;;;;5.85;4.00;;;10.00;75.10;;;;;;4993138;28;20547;-87
2023/10/22 06:29:06;;;;;;;4.15;3.72;;;10.10;75.10;;;;;;4996238;28;20050;-88
2023/10/22 06:31:32;;;;;;;5.43;3.60;;;10.00;75.00;;;;;;5010736;28;20091;-87
2023/10/22 06:33:58;;;;;;;6.07;3.78;;;10.10;75.00;;;;;;4997594;28;20049;-90
2023/10/22 06:36:26;;;;;;;5.22;3.38;;;10.00;75.10;;;;;;5016177;28;20492;-87
2023/10/22 06:38:52;;;;;;;4.97;3.65;;;10.10;75.10;;;;;;5009454;28;20073;-84
2023/10/22 06:41:21;;;;;;;5.05;3.67;;;10.00;75.10;;;;;;4980402;28;20098;-84
2023/10/22 06:43:48;;;;;;;4.78;3.63;;;10.10;75.00;;;;;;5015181;28;20049;-84
2023/10/22 06:46:14;;;;;;;4.70;3.78;;;10.10;75.10;;;;;;4994295;28;20034;-82
2023/10/22 06:48:42;;;;;;;4.07;3.60;;;10.10;75.10;;;;;;5013956;28;20034;-87
2023/10/22 06:51:12;;;;;;;5.97;3.97;;;10.10;75.10;;;;;;5003919;28;20042;-83
2023/10/22 06:53:38;;;;;;;7.18;4.00;;;10.10;75.10;;;;;;5011473;28;20120;-84
2023/10/22 06:56:07;;;;;;;8.20;4.28;;;10.10;75.10;;;;;;5013687;28;20133;-85
2023/10/22 06:58:34;;;;;;;9.15;3.90;;;10.10;75.20;;;;;;5012594;28;20113;-86
2023/10/22 07:01:04;;;;;;;6.57;4.20;;;10.10;75.10;;;;;;4995872;28;20126;-86
2023/10/22 07:03:30;;;;;;;8.68;3.75;;;10.10;75.30;;;;;;4996920;28;20041;-90
2023/10/22 07:05:57;;;;;;;6.25;4.15;;;10.10;75.20;;;;;;5003637;28;20046;-92
2023/10/22 07:08:23;;;;;;;6.72;3.90;;;10.10;75.30;;;;;;4984181;28;20011;-89
2023/10/22 07:10:49;;;;;;;6.22;4.22;;;10.10;75.30;;;;;;4984334;28;20038;-88
2023/10/22 07:13:15;;;;;;;6.45;4.05;;;10.10;75.50;;;;;;4983356;28;20041;-89
2023/10/22 07:15:41;;;;;;;6.47;4.30;;;10.20;75.60;;;;;;4978801;28;20508;-85
2023/10/22 07:18:07;;;;;;;6.57;4.20;;;10.20;75.90;;;;;;5014630;28;20040;-88
2023/10/22 07:20:33;;;;;;;7.95;4.43;;;10.10;76.40;;;;;;4992974;28;20033;-87
2023/10/22 07:23:01;;;;;;;6.55;4.22;;;10.20;77.60;;;;;;4971390;28;20512;-84
2023/10/22 07:25:27;;;;;;;8.70;4.95;;;10.20;79.50;;;;;;5017566;28;20077;-94
2023/10/22 07:27:53;;;;;;;9.45;6.22;;;10.30;80.00;;;;;;4986414;28;20037;-93
2023/10/22 07:30:19;;;;;;;11.70;6.15;;;10.30;79.70;;;;;;5002207;28;20084;-92
2023/10/22 07:32:49;;;;;;;9.77;5.68;;;10.30;79.80;;;;;;4976732;28;20303;-89
2023/10/22 07:35:16;;;;;;;9.75;5.82;;;10.30;79.70;;;;;;4957702;28;20038;-88
2023/10/22 07:37:44;;;;;;;10.35;5.82;;;10.30;78.80;;;;;;4968330;28;20530;-83
2023/10/22 07:40:13;;;;;;;9.75;5.82;;;10.30;79.00;;;;;;4993794;28;20034;-84
2023/10/22 07:42:40;;;;;;;9.77;6.40;;;10.30;78.20;;;;;;5007171;28;20030;-82
2023/10/22 07:45:07;;;;;;;9.45;6.40;;;10.30;78.10;;;;;;5009817;28;20038;-84
2023/10/22 07:47:33;;;;;;;10.85;6.28;;;10.40;78.10;;;;;;5009737;28;20045;-83
2023/10/22 07:49:58;;;;;;;9.88;6.15;;;10.30;77.80;;;;;;4995351;28;20026;-80
2023/10/22 07:52:24;;;;;;;10.18;6.22;;;10.40;77.70;;;;;;5022178;28;20042;-82
2023/10/22 07:54:53;;;;;;;9.50;6.28;;;10.40;77.70;;;;;;4993891;28;20030;-80
2023/10/22 07:57:19;;;;;;;12.00;6.72;;;10.40;77.50;;;;;;5029249;28;20064;-77
2023/10/22 07:59:45;;;;;;;12.05;6.45;;;10.40;77.30;;;;;;5008682;28;20038;-77
2023/10/22 08:02:11;;;;;;;9.95;6.40;;;10.40;77.00;;;;;;5010537;28;20121;-80
2023/10/22 08:04:37;;;;;;;10.95;6.45;;;10.40;77.00;;;;;;5009319;28;20076;-76
2023/10/22 08:07:06;;;;;;;8.63;5.97;;;10.40;76.90;;;;;;5009181;28;20037;-79
2023/10/22 08:09:32;;;;;;;9.38;6.75;;;10.40;76.80;;;;;;4988608;28;20208;-79
2023/10/22 08:11:58;;;;;;;10.85;6.53;;;10.40;76.60;;;;;;5003433;28;20128;-78
2023/10/22 08:14:24;;;;;;;9.80;6.80;;;10.40;76.50;;;;;;4967442;28;20173;-78
2023/10/22 08:16:50;;;;;;;9.77;6.22;;;10.40;76.40;;;;;;4984482;28;20490;-77
2023/10/22 08:19:17;;;;;;;11.93;6.47;;;10.40;76.50;;;;;;4990863;28;20115;-76
2023/10/22 08:21:43;;;;;;;13.50;6.70;;;10.40;77.00;;;;;;5006175;28;20042;-76
2023/10/22 08:24:09;;;;;;;15.00;6.97;;;10.50;77.70;;;;;;4991177;28;20053;-78
2023/10/22 08:26:35;;;;;;;14.75;6.25;;;10.50;78.00;;;;;;5009033;28;20068;-85
2023/10/22 08:29:01;;;;;;;15.63;6.85;;;10.50;78.10;;;;;;4993002;28;20061;-83
2023/10/22 08:31:27;;;;;;;14.55;7.40;;;10.50;79.50;;;;;;5009355;28;20034;-82
2023/10/22 08:33:53;;;;;;;15.57;7.30;;;10.50;79.40;;;;;;5012066;28;20040;-81
2023/10/22 08:36:19;;;;;;;17.45;7.35;;;10.50;79.10;;;;;;5011302;28;20030;-82
2023/10/22 08:38:45;;;;;;;15.25;7.00;;;10.50;78.70;;;;;;5012680;28;20637;-80
2023/10/22 08:41:21;;;;;;;12.70;7.05;;;10.60;78.60;;;;;;5008021;28;20033;-81
2023/10/22 08:43:49;;;;;;;16.30;7.35;;;10.60;78.40;;;;;;5020304;28;20057;-78
2023/10/22 08:46:18;;;;;;;15.43;6.63;;;10.50;78.10;;;;;;5008070;28;20038;-80
2023/10/22 08:48:44;;;;;;;14.85;7.18;;;10.60;77.80;;;;;;5003482;28;20065;-78
2023/10/22 08:51:10;;;;;;;13.60;6.60;;;10.60;77.50;;;;;;5009095;28;20041;-78
2023/10/22 08:53:37;;;;;;;13.45;6.50;;;10.60;77.30;;;;;;5002110;28;20066;-78
2023/10/22 08:56:03;;;;;;;12.40;6.85;;;10.60;77.00;;;;;;5001256;28;20502;-77
2023/10/22 08:58:30;;;;;;;12.13;6.68;;;10.60;76.80;;;;;;4991558;28;20038;-77
2023/10/22 09:00:56;;;;;;;13.43;6.82;;;10.60;76.50;;;;;;5005713;28;20128;-78
2023/10/22 09:03:25;;;;;;;11.68;6.90;;;10.60;76.60;;;;;;5007111;28;20034;-79
2023/10/22 09:05:53;;;;;;;10.32;6.82;;;10.60;76.60;;;;;;5010432;28;20380;-78
2023/10/22 09:08:19;;;;;;;16.75;7.90;;;10.60;76.50;;;;;;5006554;28;20053;-78
2023/10/22 09:10:45;;;;;;;12.70;6.78;;;10.60;76.60;;;;;;5005948;28;21205;-78
2023/10/22 09:13:16;;;;;;;9.63;7.50;;;10.70;76.50;;;;;;5020313;28;20037;-77
2023/10/22 09:15:47;;;;;;;11.35;7.43;;;10.60;76.10;;;;;;5004674;28;20160;-78
2023/10/22 09:18:14;;;;;;;10.40;7.10;;;10.60;76.30;;;;;;5004356;28;20033;-77
2023/10/22 09:20:41;;;;;;;12.50;7.07;;;10.60;75.90;;;;;;5003979;28;20042;-79
2023/10/22 09:23:15;;;;;;;12.32;6.88;;;10.70;75.90;;;;;;4987966;28;20101;-80
2023/10/22 09:25:42;;;;;;;9.88;7.20;;;10.70;75.70;;;;;;5008235;28;20065;-79
2023/10/22 09:28:15;;;;;;;14.00;7.80;;;10.70;75.80;;;;;;4987542;28;21034;-79
2023/10/22 09:30:42;;;;;;;10.25;7.13;;;10.70;75.70;;;;;;5004782;28;20564;-78
2023/10/22 09:33:09;;;;;;;10.32;6.72;;;10.70;75.50;;;;;;5005278;28;20030;-79
2023/10/22 09:35:36;;;;;;;9.55;7.38;;;10.70;75.70;;;;;;5006454;28;20037;-78
2023/10/22 09:38:02;;;;;;;14.30;7.03;;;10.70;75.60;;;;;;5006014;28;20076;-78
2023/10/22 09:40:35;;;;;;;11.05;7.70;;;10.70;75.60;;;;;;5001936;28;20416;-79
2023/10/22 09:43:04;;;;;;;10.80;7.70;;;10.70;75.50;;;;;;5013833;28;20125;-79
2023/10/22 09:45:31;;;;;;;9.70;6.93;;;10.80;75.60;;;;;;5009365;28;20098;-77
2023/10/22 09:48:04;;;;;;;11.52;7.03;;;10.70;75.40;;;;;;4974941;28;20057;-78
2023/10/22 09:50:31;;;;;;;11.23;7.38;;;10.80;75.40;;;;;;5001838;28;20042;-78
2023/10/22 09:52:59;;;;;;;10.88;7.38;;;10.80;75.50;;;;;;4987234;28;20429;-80
2023/10/22 09:55:28;;;;;;;12.23;6.85;;;10.80;75.30;;;;;;5001750;28;20080;-78
2023/10/22 09:57:54;;;;;;;11.13;7.50;;;10.80;75.30;;;;;;5002094;28;20736;-78
2023/10/22 10:00:21;;;;;;;15.68;7.57;;;10.80;75.20;;;;;;5006289;28;20707;-80
2023/10/22 10:02:47;;;;;;;11.85;7.18;;;10.80;75.30;;;;;;5004192;28;20812;-78
2023/10/22 10:05:14;;;;;;;12.70;7.65;;;10.80;75.30;;;;;;4981572;28;20076;-78
2023/10/22 10:07:42;;;;;;;12.18;8.30;;;10.80;75.20;;;;;;4996855;28;20049;-79
2023/10/22 10:10:09;;;;;;;8.43;7.28;;;10.80;75.10;;;;;;4975186;28;20827;-79
2023/10/22 10:12:40;;;;;;;10.48;7.88;;;10.80;74.90;;;;;;5007423;28;20029;-79
2023/10/22 10:15:06;;;;;;;10.82;7.97;;;10.80;74.90;;;;;;5005976;28;20045;-78
2023/10/22 10:17:52;;;;;;;10.43;8.50;;;10.80;74.80;;;;;;5006239;28;20401;-81
2023/10/22 10:20:30;;;;;;;12.85;8.18;;;10.80;74.90;;;;;;5005488;28;20049;-80
2023/10/22 10:23:05;;;;;;;13.95;8.35;;;10.80;74.90;;;;;;4988201;28;20077;-78
2023/10/22 10:25:32;;;;;;;10.88;8.20;;;10.80;74.90;;;;;;5000334;28;20161;-81
2023/10/22 10:28:06;;;;;;;10.25;8.07;;;10.80;74.80;;;;;;4984197;28;20057;-80
2023/10/22 10:30:33;;;;;;;11.90;8.63;;;10.80;74.90;;;;;;5019800;28;20030;-77
2023/10/22 10:33:00;;;;;;;10.20;8.02;;;10.80;74.70;;;;;;5006529;28;20119;-77
2023/10/22 10:35:28;;;;;;;11.27;8.30;;;10.80;74.60;;;;;;4956589;28;20045;-79
2023/10/22 10:38:13;;;;;;;11.25;8.18;;;10.90;74.60;;;;;;5013381;28;20650;-79
2023/10/22 10:40:43;;;;;;;10.00;8.20;;;10.80;74.50;;;;;;5006530;28;20493;-76
2023/10/22 10:43:10;;;;;;;12.35;8.57;;;10.80;74.40;;;;;;5021067;28;20044;-79
2023/10/22 10:45:40;;;;;;;10.00;8.07;;;10.80;74.30;;;;;;4988366;28;20037;-78
2023/10/22 10:48:06;;;;;;;12.55;8.25;;;10.90;74.60;;;;;;5005803;28;20104;-78
2023/10/22 10:50:32;;;;;;;10.23;7.95;;;10.90;74.80;;;;;;4987312;28;20579;-78
2023/10/22 10:52:59;;;;;;;9.93;7.75;;;10.80;75.40;;;;;;4998450;28;20129;-77
2023/10/22 10:55:32;;;;;;;11.55;8.10;;;10.90;75.10;;;;;;4988972;28;20910;-80
2023/10/22 10:57:59;;;;;;;12.02;8.13;;;10.90;75.20;;;;;;5005088;28;20127;-83
2023/10/22 11:00:31;;;;;;;9.68;7.47;;;10.90;76.50;;;;;;4973495;28;20029;-81
2023/10/22 11:03:02;;;;;;;9.77;7.63;;;10.90;76.60;;;;;;5004565;28;20038;-82
2023/10/22 11:05:39;;;;;;;10.45;7.35;;;10.90;76.50;;;;;;5006279;28;20030;-88
2023/10/22 11:08:15;;;;;;;10.57;7.68;;;10.90;76.50;;;;;;5007128;28;20424;-83
2023/10/22 11:10:41;;;;;;;9.50;7.40;;;10.90;76.50;;;;;;5006752;28;20164;-80
2023/10/22 11:13:08;;;;;;;9.80;7.90;;;10.80;76.30;;;;;;5005274;28;20140;-84
2023/10/22 11:15:36;;;;;;;12.43;7.45;;;10.90;76.50;;;;;;5029413;28;20033;-84
2023/10/22 11:18:10;;;;;;;9.25;7.95;;;10.90;76.40;;;;;;5018974;28;20029;-83
2023/10/22 11:20:37;;;;;;;11.15;8.07;;;10.90;76.50;;;;;;5002292;28;20038;-85
2023/10/22 11:23:03;;;;;;;9.88;7.25;;;10.90;76.50;;;;;;5000797;28;20077;-81
2023/10/22 11:25:31;;;;;;;9.20;7.30;;;10.80;76.30;;;;;;5012643;28;21332;-78
2023/10/22 11:27:58;;;;;;;9.10;7.70;;;10.90;76.50;;;;;;4968451;28;20076;-79
2023/10/22 11:30:39;;;;;;;11.80;7.82;;;10.90;76.50;;;;;;4998333;28;20053;-80
2023/10/22 11:33:11;;;;;;;8.90;7.97;;;10.80;76.30;;;;;;4988524;28;20511;-78
2023/10/22 11:35:38;;;;;;;10.43;7.22;;;10.90;76.50;;;;;;4988074;28;20092;-76
2023/10/22 11:38:07;;;;;;;8.20;7.38;;;10.80;76.50;;;;;;5000841;28;20069;-78
2023/10/22 11:40:36;;;;;;;10.13;7.55;;;10.80;76.60;;;;;;4980494;28;20034;-78
2023/10/22 11:43:13;;;;;;;10.07;7.72;;;10.80;76.80;;;;;;4984659;28;20608;-81
2023/10/22 11:45:55;;;;;;;11.13;8.02;;;10.80;77.00;;;;;;4981532;28;20042;-78
2023/10/22 11:48:35;;;;;;;11.85;8.45;;;10.80;77.10;;;;;;4984595;28;20045;-78
2023/10/22 11:51:03;;;;;;;9.90;7.40;;;10.80;77.40;;;;;;4984129;28;20043;-75
2023/10/22 11:53:43;;;;;;;11.77;8.10;;;10.80;77.70;;;;;;4983491;28;20854;-77
2023/10/22 11:56:09;;;;;;;10.50;6.70;;;10.90;78.00;;;;;;5019367;28;20062;-79
2023/10/22 11:58:35;;;;;;;11.35;7.55;;;10.80;78.00;;;;;;4995882;28;20572;-79
2023/10/22 12:01:02;;;;;;;9.80;7.25;;;10.80;78.20;;;;;;4989062;28;20811;-77
2023/10/22 12:03:28;;;;;;;9.90;7.10;;;10.80;78.20;;;;;;5024957;28;20046;-77
2023/10/22 12:05:55;;;;;;;8.38;7.40;;;10.80;78.80;;;;;;5004147;28;20527;-77
2023/10/22 12:08:22;;;;;;;9.00;7.75;;;10.80;78.90;;;;;;5004356;28;20048;-79
2023/10/22 12:10:48;;;;;;;9.00;7.60;;;10.80;78.90;;;;;;4977812;28;20179;-81
2023/10/22 12:13:14;;;;;;;11.10;7.93;;;10.80;78.90;;;;;;5011150;28;20030;-81
2023/10/22 12:15:41;;;;;;;11.40;8.23;;;10.80;79.10;;;;;;5005134;28;20029;-84
2023/10/22 12:18:08;;;;;;;11.30;7.70;;;10.80;79.20;;;;;;4988881;28;20034;-79
2023/10/22 12:20:34;;;;;;;11.85;8.35;;;10.80;79.40;;;;;;5004777;28;20049;-82
2023/10/22 12:23:00;;;;;;;10.45;7.65;;;10.80;79.60;;;;;;4980249;28;20062;-82
2023/10/22 12:25:30;;;;;;;10.02;8.13;;;10.80;79.90;;;;;;4976978;28;20077;-81
2023/10/22 12:27:56;;;;;;;11.15;8.48;;;10.80;79.80;;;;;;4973300;28;20034;-82
2023/10/22 12:30:22;;;;;;;11.57;8.07;;;10.80;79.90;;;;;;4972768;28;20032;-84
2023/10/22 12:32:48;;;;;;;12.35;8.27;;;10.80;79.90;;;;;;4987855;28;20062;-83
2023/10/22 12:35:14;;;;;;;10.30;7.70;;;10.80;79.90;;;;;;5009197;28;20041;-80
2023/10/22 12:37:40;;;;;;;9.05;7.65;;;10.80;79.90;;;;;;4990092;28;20041;-82
2023/10/22 12:40:07;;;;;;;10.43;7.90;;;10.80;79.90;;;;;;4969387;28;20050;-80
2023/10/22 12:42:33;;;;;;;11.38;8.00;;;10.80;80.10;;;;;;4953602;28;20062;-83